1927 NOT_NAMED (1927233N10144)


IBTrACS version v04r00. Visit IBTrACS website for data access.
Please direct all questions to the IBTrACS Q and A forum

Storm track - Intensity - Wind Radii - Intensity Data - Source Data - All data

Summary Information

Storm ID 1927233N10144
Start Aug 20 22Z
End Aug 26 22Z
ATCF IDs
Track status Best track data.

Storm track plot

Map of storm track

Intensity plots

No Intensity information for this storm


Radial wind information

No radial wind information for this storm


Position and Intensity Table

BASIN ISO_TIME_________ NATURE LAT LON
degrees north degrees east
WP 1927-08-20 22:00:00 NR 10.20 144.30
WP 1927-08-21 00:00:00 NR 10.25 143.98
WP 03:00:00 NR 10.33 143.49
WP 06:00:00 NR 10.43 143.02
WP 09:00:00 NR 10.55 142.55
WP 10:00:00 NR 10.60 142.40
WP 12:00:00 NR 10.71 142.10
WP 15:00:00 NR 10.90 141.68
WP 18:00:00 NR 11.11 141.31
WP 21:00:00 NR 11.33 140.99
WP 22:00:00 NR 11.40 140.90
WP 1927-08-22 00:00:00 NR 11.53 140.75
WP 03:00:00 NR 11.71 140.58
WP 06:00:00 NR 11.91 140.45
WP 09:00:00 NR 12.12 140.34
WP 10:00:00 NR 12.20 140.30
WP 12:00:00 NR 12.34 140.19
WP 15:00:00 NR 12.56 140.03
WP 18:00:00 NR 12.83 139.88
WP 21:00:00 NR 13.17 139.74
WP 22:00:00 NR 13.30 139.70
WP 1927-08-23 00:00:00 NR 13.60 139.63
WP 03:00:00 NR 14.11 139.54
WP 06:00:00 NR 14.68 139.47
WP 09:00:00 NR 15.29 139.41
WP 10:00:00 NR 15.50 139.40
WP 12:00:00 NR 15.91 139.37
WP 15:00:00 NR 16.55 139.34
WP 18:00:00 NR 17.19 139.32
WP 21:00:00 NR 17.80 139.31
WP 22:00:00 NR 18.00 139.30
WP 1927-08-24 00:00:00 NR 18.36 139.30
WP 03:00:00 NR 18.87 139.29
WP 06:00:00 NR 19.36 139.27
WP 09:00:00 NR 19.84 139.22
WP 10:00:00 NR 20.00 139.20
WP 12:00:00 NR 20.36 139.14
WP 15:00:00 NR 20.90 139.01
WP 18:00:00 NR 21.41 138.85
WP 21:00:00 NR 21.87 138.67
WP 22:00:00 NR 22.00 138.60
WP 1927-08-25 00:00:00 NR 22.23 138.49
WP 03:00:00 NR 22.52 138.29
WP 06:00:00 NR 22.74 138.07
WP 09:00:00 NR 22.94 137.80
WP 10:00:00 NR 23.00 137.70
WP 12:00:00 NR 23.13 137.50
WP 15:00:00 NR 23.31 137.15
WP 18:00:00 NR 23.47 136.74
WP 21:00:00 NR 23.64 136.27
WP 22:00:00 NR 23.70 136.10
WP 1927-08-26 00:00:00 NR 23.83 135.73
WP 03:00:00 NR 24.04 135.13
WP 06:00:00 NR 24.24 134.48
WP 09:00:00 NR 24.44 133.82
WP 10:00:00 NR 24.50 133.60
WP 12:00:00 NR 24.62 133.17
WP 15:00:00 NR 24.77 132.54
WP 18:00:00 NR 24.92 131.92
WP 21:00:00 NR 25.06 131.30
WP 22:00:00 NR 25.10 131.10

Source Information

Agency Information
USA
TOKYO
CMA
HKO
NEWDELHI
REUNION
BOM
NADI
WELLINGTON
DS824
TD9636 cons_worldwide_trop_cyclone_18710101-19891231-003:Line=7834
TD9635
NEUMANN
MLC

All available IBTrACS Data

SEASON BASIN SUBBASIN ISO_TIME_________ NATURE LAT LON DIST2LAND LANDFALL IFLAG USA SSHS TD9636 LAT TD9636 LON TD9636 STAGE STORM SPEED STORM DIR
Year degrees north degrees east km km 1 degrees north degrees east kts degrees
1927 WP MM 1927-08-20 22:00:00 NR 10.20 144.30 1401 1401 __________O___ -1 10.20 144.30 7 10 279
1927 WP MM 1927-08-21 00:00:00 NR 10.25 143.98 1408 1421 __________P___ -1 10.25 143.98 7 10 279
1927 WP MM 03:00:00 NR 10.33 143.49 1431 1431 __________P___ -1 10.33 143.49 7 10 281
1927 WP MM 06:00:00 NR 10.43 143.02 1445 1440 __________P___ -1 10.43 143.02 7 10 283
1927 WP MM 09:00:00 NR 10.55 142.55 1451 1443 __________P___ -1 10.55 142.55 7 9 286
1927 WP MM 10:00:00 NR 10.60 142.40 1443 1440 __________O___ -1 10.60 142.40 7 9 290
1927 WP MM 12:00:00 NR 10.71 142.10 1444 1441 __________P___ -1 10.71 142.10 7 9 293
1927 WP MM 15:00:00 NR 10.90 141.68 1453 1450 __________P___ -1 10.90 141.68 7 9 297
1927 WP MM 18:00:00 NR 11.11 141.31 1461 1456 __________P___ -1 11.11 141.31 7 8 302
1927 WP MM 21:00:00 NR 11.33 140.99 1468 1468 __________P___ -1 11.33 140.99 7 7 306
1927 WP MM 22:00:00 NR 11.40 140.90 1474 1470 __________O___ -1 11.40 140.90 7 6 310
1927 WP MM 1927-08-22 00:00:00 NR 11.53 140.75 1476 1476 __________P___ -1 11.53 140.75 7 5 315
1927 WP MM 03:00:00 NR 11.71 140.58 1493 1493 __________P___ -1 11.71 140.58 7 5 323
1927 WP MM 06:00:00 NR 11.91 140.45 1511 1507 __________P___ -1 11.91 140.45 7 5 330
1927 WP MM 09:00:00 NR 12.12 140.34 1524 1524 __________P___ -1 12.12 140.34 7 5 333
1927 WP MM 10:00:00 NR 12.20 140.30 1535 1535 __________O___ -1 12.20 140.30 7 5 327
1927 WP MM 12:00:00 NR 12.34 140.19 1542 1542 __________P___ -1 12.34 140.19 7 5 324
1927 WP MM 15:00:00 NR 12.56 140.03 1554 1546 __________P___ -1 12.56 140.03 7 6 328
1927 WP MM 18:00:00 NR 12.83 139.88 1548 1530 __________P___ -1 12.83 139.88 7 7 335
1927 WP MM 21:00:00 NR 13.17 139.74 1531 1531 __________P___ -1 13.17 139.74 7 8 340
1927 WP MM 22:00:00 NR 13.30 139.70 1533 1526 __________O___ -1 13.30 139.70 7 9 345
1927 WP MM 1927-08-23 00:00:00 NR 13.60 139.63 1527 1525 __________P___ -1 13.60 139.63 7 10 349
1927 WP MM 03:00:00 NR 14.11 139.54 1527 1527 __________P___ -1 14.11 139.54 7 11 352
1927 WP MM 06:00:00 NR 14.68 139.47 1540 1533 __________P___ -1 14.68 139.47 7 12 354
1927 WP MM 09:00:00 NR 15.29 139.41 1541 1541 __________P___ -1 15.29 139.41 7 12 355
1927 WP MM 10:00:00 NR 15.50 139.40 1545 1545 __________O___ -1 15.50 139.40 7 13 357
1927 WP MM 12:00:00 NR 15.91 139.37 1555 1555 __________P___ -1 15.91 139.37 7 13 357
1927 WP MM 15:00:00 NR 16.55 139.34 1565 1565 __________P___ -1 16.55 139.34 7 13 358
1927 WP MM 18:00:00 NR 17.19 139.32 1586 1586 __________P___ -1 17.19 139.32 7 13 359
1927 WP MM 21:00:00 NR 17.80 139.31 1609 1609 __________P___ -1 17.80 139.31 7 12 0
1927 WP MM 22:00:00 NR 18.00 139.30 1617 1617 __________O___ -1 18.00 139.30 2 11 0
1927 WP MM 1927-08-24 00:00:00 NR 18.36 139.30 1634 1604 __________P___ -1 18.36 139.30 2 11 359
1927 WP MM 03:00:00 NR 18.87 139.29 1604 1556 __________P___ -1 18.87 139.29 2 10 360
1927 WP MM 06:00:00 NR 19.36 139.27 1556 1512 __________P___ -1 19.36 139.27 2 10 356
1927 WP MM 09:00:00 NR 19.84 139.22 1512 1492 __________P___ -1 19.84 139.22 2 10 354
1927 WP MM 10:00:00 NR 20.00 139.20 1492 1448 __________O___ -1 20.00 139.20 2 11 351
1927 WP MM 12:00:00 NR 20.36 139.14 1448 1395 __________P___ -1 20.36 139.14 2 11 349
1927 WP MM 15:00:00 NR 20.90 139.01 1395 1342 __________P___ -1 20.90 139.01 2 11 346
1927 WP MM 18:00:00 NR 21.41 138.85 1342 1284 __________P___ -1 21.41 138.85 2 10 342
1927 WP MM 21:00:00 NR 21.87 138.67 1284 1269 __________P___ -1 21.87 138.67 2 10 338
1927 WP MM 22:00:00 NR 22.00 138.60 1269 1244 __________O___ -1 22.00 138.60 2 8 335
1927 WP MM 1927-08-25 00:00:00 NR 22.23 138.49 1244 1205 __________P___ -1 22.23 138.49 2 7 331
1927 WP MM 03:00:00 NR 22.52 138.29 1205 1175 __________P___ -1 22.52 138.29 2 6 323
1927 WP MM 06:00:00 NR 22.74 138.07 1175 1140 __________P___ -1 22.74 138.07 2 6 313
1927 WP MM 09:00:00 NR 22.94 137.80 1140 1125 __________P___ -1 22.94 137.80 2 6 307
1927 WP MM 10:00:00 NR 23.00 137.70 1125 1104 __________O___ -1 23.00 137.70 2 7 304
1927 WP MM 12:00:00 NR 23.13 137.50 1104 1064 __________P___ -1 23.13 137.50 2 7 301
1927 WP MM 15:00:00 NR 23.31 137.15 1064 1024 __________P___ -1 23.31 137.15 2 8 296
1927 WP MM 18:00:00 NR 23.47 136.74 1024 993 __________P___ -1 23.47 136.74 2 9 293
1927 WP MM 21:00:00 NR 23.64 136.27 993 973 __________P___ -1 23.64 136.27 2 9 291
1927 WP MM 22:00:00 NR 23.70 136.10 973 942 __________O___ -1 23.70 136.10 2 11 291
1927 WP MM 1927-08-26 00:00:00 NR 23.83 135.73 942 893 __________P___ -1 23.83 135.73 2 11 291
1927 WP MM 03:00:00 NR 24.04 135.13 893 846 __________P___ -1 24.04 135.13 2 12 290
1927 WP MM 06:00:00 NR 24.24 134.48 846 797 __________P___ -1 24.24 134.48 2 13 288
1927 WP MM 09:00:00 NR 24.44 133.82 797 779 __________P___ -1 24.44 133.82 2 13 288
1927 WP MM 10:00:00 NR 24.50 133.60 779 755 __________O___ -1 24.50 133.60 2 12 287
1927 WP MM 12:00:00 NR 24.62 133.17 755 714 __________P___ -1 24.62 133.17 2 12 286
1927 WP MM 15:00:00 NR 24.77 132.54 714 691 __________P___ -1 24.77 132.54 2 12 285
1927 WP MM 18:00:00 NR 24.92 131.92 691 661 __________P___ -1 24.92 131.92 2 12 284
1927 WP MM 21:00:00 NR 25.06 131.30 661 659 __________P___ -1 25.06 131.30 2 11 284
1927 WP MM 22:00:00 NR 25.10 131.10 659 __________O___ -1 25.10 131.10 2 11 284